Flight Track Log - Related Links

Times and Time Zones

All times are in EDT time to prevent confusion due to time zone crossing. See the AWE1600 flight status page for this flight to view local times or setup timezone preferences in your user account.

Time Position Orientation Groundspeed Altitude Reporting Facility
EDT Latitude Longitude Course Direction KTS MPH feet Rate Location/Type
Mon 09:21:10 AM 39.8833 -75.2167 270° West 159 183 900  Level Philadelphia TRACON
Mon 09:22:10 AM 39.9000 -75.1667 67° East 211 243 3,000 2,250 Climbing Philadelphia TRACON
Mon 09:23:10 AM 39.9500 -75.1167 37° Northeast 293 337 5,400 3,150 Climbing Philadelphia TRACON
Mon 09:24:00 AM 39.9158 -75.6719 258° West  Level FlightAware Approximate
Mon 09:24:10 AM 39.9667 -75.2000 285° West 254 292 9,300  Level Philadelphia TRACON
Mon 09:25:00 AM 39.9000 -75.7835 270° West  Level FlightAware Approximate
Mon 09:25:10 AM 39.9500 -75.3167 259° West 346 398 9,900  Level Philadelphia TRACON
Mon 09:26:00 AM 39.9001 -75.8973 270° West  Level FlightAware Approximate
Mon 09:26:18 AM 39.9417 -75.4467 265° West 348 400 10,000  Level New York Center
Mon 09:27:16 AM 39.9261 -75.5756 261° West 359 413 10,000 513 Level New York Center
Mon 09:28:15 AM 39.9167 -75.7022 264° West 359 413 11,000 1,000 Climbing New York Center
Mon 09:29:16 AM 39.9133 -75.8319 268° West 354 407 12,000 1,672 Climbing New York Center
Mon 09:30:17 AM 39.9122 -75.9508 269° West 366 421 14,400 2,579 Climbing New York Center
Mon 09:31:17 AM 39.9081 -76.0886 268° West 372 428 17,200 1,785 Climbing New York Center
Mon 09:32:18 AM 39.9114 -76.2433 272° West 383 441 18,000 992 Climbing New York Center
Mon 09:33:18 AM 39.9144 -76.3572 272° West 391 450 19,200 1,850 Climbing New York Center
Mon 09:34:18 AM 39.9206 -76.5336 273° West 404 465 21,700 2,319 Climbing New York Center
Mon 09:35:17 AM 39.9278 -76.6831 274° West 409 471 23,800 1,900 Climbing New York Center
Mon 09:36:18 AM 39.9494 -76.8314 281° West 414 476 25,500 1,488 Climbing New York Center
Mon 09:37:18 AM 39.9792 -76.9828 284° West 420 483 26,800 1,831 Climbing New York Center
Mon 09:38:16 AM 40.0086 -77.1319 284° West 425 489 29,100 2,168 Climbing New York Center
Mon 09:39:17 AM 40.0575 -77.2719 295° West 425 489 31,100 1,645 Climbing New York Center
Mon 09:41:22 AM 40.1847 -77.5283 303° West 410 472 34,200 1,492 Climbing Cleveland Center
Mon 09:42:22 AM 40.2300 -77.6650 293° West 415 478 35,700 1,300 Climbing Cleveland Center
Mon 09:43:22 AM 40.2231 -77.8067 266° West 393 452 36,800 857 Climbing Cleveland Center
Mon 09:44:21 AM 40.2119 -77.9542 264° West 393 452 37,400 600 Climbing Cleveland Center
Mon 09:45:22 AM 40.2028 -78.1011 265° West 405 466 38,000 298 Climbing Cleveland Center
Mon 09:46:22 AM 40.1975 -78.2456 267° West 405 466 38,000  Level Cleveland Center
Mon 09:47:22 AM 40.1878 -78.3953 265° West 405 466 38,000  Level Cleveland Center
Mon 09:48:21 AM 40.1803 -78.5422 266° West 405 466 38,000  Level Cleveland Center
Mon 09:49:22 AM 40.1703 -78.6919 265° West 405 466 38,000  Level Cleveland Center
Mon 09:50:22 AM 40.1622 -78.8364 266° West 405 466 38,000 -202 Level Cleveland Center
Mon 09:51:21 AM 40.1539 -78.9858 266° West 405 466 37,600 -700 Descending Cleveland Center
Mon 09:52:22 AM 40.1497 -79.1408 268° West 412 474 36,600 -793 Descending Cleveland Center
Mon 09:53:22 AM 40.1869 -79.2786 290° West 412 474 36,000 -300 Descending Cleveland Center
Mon 09:54:22 AM 40.2428 -79.4325 295° West 407 468 36,000 -300 Level Cleveland Center
Mon 09:55:22 AM 40.2900 -79.5706 294° West 417 480 35,400 -800 Descending Cleveland Center
Mon 09:56:22 AM 40.3328 -79.7033 293° West 427 491 34,400 -1,000 Descending Cleveland Center
Mon 09:57:22 AM 40.3794 -79.8444 294° West 427 491 33,400 -1,000 Descending Cleveland Center
Mon 09:58:22 AM 40.4261 -79.9831 294° West 427 491 32,400 -950 Descending Cleveland Center
Mon 09:59:22 AM 40.4706 -80.1272 292° West 427 491 31,500 -950 Descending Cleveland Center
Mon 10:00:22 AM 40.5211 -80.2744 294° West 432 497 30,500 -750 Descending Cleveland Center
Mon 10:01:22 AM 40.5714 -80.4219 294° West 432 497 30,000 -250 Descending Cleveland Center
Mon 10:02:22 AM 40.6383 -80.5667 301° West 432 497 30,000  Level Cleveland Center
Mon 10:03:22 AM 40.6989 -80.6844 304° West 432 497 30,000  Level Cleveland Center
Mon 10:04:22 AM 40.7672 -80.8161 304° West 432 497 30,000  Level Cleveland Center
Mon 10:05:22 AM 40.8358 -80.9453 305° West 432 497 30,000  Level Cleveland Center
Mon 10:06:22 AM 40.9000 -81.0803 302° West 437 503 30,000 -250 Level Cleveland Center
Mon 10:07:22 AM 40.9639 -81.2128 303° West 432 497 29,500 -750 Descending Cleveland Center
Mon 10:08:22 AM 41.0297 -81.3456 303° West 432 497 28,500 -1,000 Descending Cleveland Center
Mon 10:09:22 AM 41.1017 -81.4897 304° West 432 497 27,500 -950 Descending Cleveland Center
Mon 10:10:22 AM 41.1611 -81.6064 304° West 432 497 26,600 -950 Descending Cleveland Center
Mon 10:11:22 AM 41.2244 -81.7372 303° West 426 490 25,600 -1,000 Descending Cleveland Center
Mon 10:12:22 AM 41.2878 -81.8653 303° West 421 484 24,600 -1,000 Descending Cleveland Center
Mon 10:13:22 AM 41.3508 -81.9911 304° West 421 484 23,600 -1,000 Descending Cleveland Center
Mon 10:14:22 AM 41.4097 -82.1197 301° West 421 484 22,600 -1,500 Descending Cleveland Center
Mon 10:15:22 AM 41.4706 -82.2458 303° West 415 478 20,600 -2,100 Descending Cleveland Center
Mon 10:16:22 AM 41.5272 -82.3639 303° West 399 459 18,400 -2,278 Descending Cleveland Center
Mon 10:16:41 AM 41.5492 -82.4117 302° West 385 443 17,600 -2,000 Descending Cleveland Center
Mon 10:17:22 AM 41.5836 -82.4819 303° West 385 443 16,400 -1,967 Descending Cleveland Center
Mon 10:17:42 AM 41.6078 -82.5272 306° West 368 423 15,600 -2,100 Descending Cleveland Center
Mon 10:18:22 AM 41.6439 -82.6117 300° West 380 437 14,300 -2,000 Descending Cleveland Center
Mon 10:18:42 AM 41.6642 -82.6428 311° West 372 428 13,600 -1,800 Descending Cleveland Center
Mon 10:19:22 AM 41.6961 -82.7217 298° West 368 423 12,500 -1,475 Descending Cleveland Center
Mon 10:19:43 AM 41.7183 -82.7642 305° West 355 409 12,100 -500 Descending Cleveland Center
Mon 10:20:22 AM 41.7589 -82.8211 314° West 361 415 12,000 -98 Descending Cleveland Center
Mon 10:20:44 AM 41.7894 -82.8556 320° Northwest 359 413 12,000  Level Cleveland Center
Mon 10:21:22 AM 41.8322 -82.9100 317° Northwest 350 403 12,000  Level Cleveland Center
Mon 10:21:45 AM 41.8628 -82.9447 320° Northwest 356 410 12,000  Level Cleveland Center
Mon 10:22:22 AM 41.9053 -82.9964 318° Northwest 350 403 12,000  Level Cleveland Center
Mon 10:22:46 AM 41.9358 -83.0339 318° Northwest 354 407 12,000 -200 Level Cleveland Center
Mon 10:23:22 AM 41.9786 -83.0858 318° Northwest 350 403 11,800 -689 Descending Cleveland Center
Mon 10:23:47 AM 42.0150 -83.1292 319° Northwest 356 410 11,300 -800 Descending Cleveland Center
Mon 10:24:22 AM 42.0517 -83.1725 319° Northwest 355 409 11,000 -295 Descending Cleveland Center
Mon 10:24:48 AM 42.0842 -83.2075 321° Northwest 291 335 11,000 -100 Level Cleveland Center
Mon 10:25:22 AM 42.1214 -83.2258 340° North 315 362 10,900 -885 Descending Cleveland Center
Mon 10:25:49 AM 42.1589 -83.2247 North 283 326 10,100 -1,300 Descending Cleveland Center
Mon 10:26:22 AM 42.1947 -83.2036 24° Northeast 263 303 9,600 -800 Descending Cleveland Center
Mon 10:26:49 AM 42.2244 -83.1797 31° Northeast 266 306 9,300 -955 Descending Cleveland Center
Mon 10:27:50 AM 42.2881 -83.1403 25° Northeast 216 249 8,200 -1,721 Descending Cleveland Center
Mon 10:28:51 AM 42.3381 -83.1311 North 200 230 5,800 -2,361 Descending Cleveland Center

Login

Don't have an account? Register now (free) for customized features, flight alerts, and more!